Time;durP1;ratioP1;P1;durP2;ratioP2;P2;SDS_P1;SDS_P2;PMS_P1;PMS_P2;Temp;Humidity;BMP_temperature;BMP_pressure;BME280_temperature;BME280_humidity;BME280_pressure;Samples;Min_cycle;Max_cycle;Signal;HPM_P1;HPM_P2
2023/06/23 00:00:37;;;;;;;3.22;2.22;;;24.00;1.00;;;;;;4912930;29;20040;-53
2023/06/23 00:03:04;;;;;;;3.45;1.83;;;24.00;1.00;;;;;;4908310;29;20044;-52
2023/06/23 00:05:31;;;;;;;3.65;2.30;;;24.00;1.00;;;;;;4916430;29;20048;-55
2023/06/23 00:07:59;;;;;;;2.60;1.80;;;24.00;1.00;;;;;;4915383;29;20135;-52
2023/06/23 00:10:26;;;;;;;4.13;1.95;;;24.00;1.00;;;;;;4916563;29;20576;-53
2023/06/23 00:12:53;;;;;;;2.45;1.85;;;24.00;1.00;;;;;;4916170;29;20047;-56
2023/06/23 00:15:21;;;;;;;3.90;2.20;;;24.00;1.00;;;;;;4912955;29;20036;-53
2023/06/23 00:17:50;;;;;;;4.38;1.70;;;24.00;1.00;;;;;;4898030;29;20045;-53
2023/06/23 00:20:19;;;;;;;2.42;1.63;;;24.00;1.00;;;;;;4897973;29;20060;-53
2023/06/23 00:22:45;;;;;;;3.13;1.92;;;24.00;1.00;;;;;;4897333;29;20214;-56
2023/06/23 00:25:13;;;;;;;2.58;1.88;;;24.00;1.00;;;;;;4897742;29;20078;-50
2023/06/23 00:27:41;;;;;;;3.08;1.70;;;24.00;1.00;;;;;;4897923;29;20055;-56
2023/06/23 00:30:11;;;;;;;4.95;1.75;;;24.00;1.00;;;;;;4897012;29;20044;-53
2023/06/23 00:32:39;;;;;;;2.92;2.10;;;24.00;1.00;;;;;;4895452;29;20045;-52
2023/06/23 00:35:10;;;;;;;3.25;2.40;;;24.00;1.00;;;;;;4897442;29;20108;-51
2023/06/23 00:40:33;;;;;;;2.67;1.83;;;24.00;1.00;;;;;;4948879;23;20051;-53
2023/06/23 00:43:00;;;;;;;3.33;2.00;;;24.00;1.00;;;;;;4932861;29;20623;-53
2023/06/23 00:45:27;;;;;;;3.72;1.50;;;24.00;1.00;;;;;;4934044;29;20043;-50
2023/06/23 00:47:55;;;;;;;1.73;1.50;;;24.00;1.00;;;;;;4935002;29;20040;-55
2023/06/23 00:50:24;;;;;;;2.22;1.90;;;24.00;1.00;;;;;;4933396;29;20580;-51
2023/06/23 00:52:52;;;;;;;2.08;1.42;;;23.90;1.00;;;;;;4933004;29;20279;-50
2023/06/23 00:55:21;;;;;;;2.78;1.65;;;23.90;1.00;;;;;;4930350;23;20059;-51
2023/06/23 00:57:50;;;;;;;3.20;2.00;;;23.90;1.00;;;;;;4914123;29;20084;-52
2023/06/23 01:00:19;;;;;;;3.80;2.25;;;23.90;1.00;;;;;;4915256;29;20059;-51
2023/06/23 01:02:51;;;;;;;3.85;1.83;;;23.90;1.00;;;;;;4913943;29;20103;-52
2023/06/23 01:05:24;;;;;;;3.33;1.48;;;23.90;1.00;;;;;;4915403;29;20032;-51
2023/06/23 01:08:14;;;;;;;2.65;1.88;;;23.90;1.00;;;;;;4915456;29;20119;-52
2023/06/23 01:10:56;;;;;;;3.25;1.98;;;23.90;1.00;;;;;;5084707;23;20495;-50
2023/06/23 01:14:04;;;;;;;3.10;1.70;;;23.90;1.00;;;;;;4906217;29;20127;-51
2023/06/23 01:16:44;;;;;;;2.75;1.40;;;23.90;1.00;;;;;;4909403;29;20154;-52
2023/06/23 01:19:23;;;;;;;2.10;1.70;;;23.90;1.00;;;;;;4917466;29;20119;-52
2023/06/23 01:21:59;;;;;;;6.53;1.67;;;23.90;1.00;;;;;;4918648;29;20041;-52
2023/06/23 01:24:41;;;;;;;2.42;1.58;;;23.90;1.00;;;;;;4917331;29;20504;-51
2023/06/23 01:27:11;;;;;;;2.60;2.23;;;23.90;1.00;;;;;;4918747;29;20496;-51
2023/06/23 01:29:40;;;;;;;2.92;1.95;;;23.90;1.00;;;;;;4917431;29;20048;-52
2023/06/23 01:32:17;;;;;;;5.32;2.30;;;23.90;1.00;;;;;;4918220;29;20036;-47
2023/06/23 01:34:46;;;;;;;2.70;1.65;;;23.90;1.00;;;;;;4917513;29;20044;-51
2023/06/23 01:37:23;;;;;;;3.97;1.90;;;23.90;1.00;;;;;;4918468;29;20088;-52
2023/06/23 01:39:56;;;;;;;3.42;1.90;;;23.80;1.00;;;;;;4918769;29;20449;-51
2023/06/23 01:42:31;;;;;;;2.58;1.70;;;23.80;1.00;;;;;;4972030;23;20508;-52
2023/06/23 01:45:00;;;;;;;3.50;1.70;;;23.80;1.00;;;;;;4918126;29;20599;-45
2023/06/23 01:47:33;;;;;;;2.95;1.85;;;23.80;1.00;;;;;;4925915;29;20048;-51
2023/06/23 01:50:06;;;;;;;5.32;2.03;;;23.80;1.00;;;;;;4925968;29;20040;-52
2023/06/23 01:52:34;;;;;;;;;;;23.80;1.00;;;;;;4921636;29;20572;-49
2023/06/23 01:55:04;;;;;;;3.13;1.83;;;23.90;1.00;;;;;;4936312;29;19927;-49
2023/06/23 01:57:33;;;;;;;2.53;2.08;;;23.80;1.00;;;;;;4937108;29;20046;-50
2023/06/23 02:00:01;;;;;;;4.07;2.25;;;23.80;1.00;;;;;;4932795;29;20079;-52
2023/06/23 02:02:46;;;;;;;3.10;2.00;;;23.80;1.00;;;;;;4936833;29;20083;-51
2023/06/23 02:05:16;;;;;;;2.33;1.80;;;23.80;1.00;;;;;;4935757;29;20052;-47
2023/06/23 02:07:46;;;;;;;4.53;2.05;;;23.80;1.00;;;;;;4935741;29;20040;-48
2023/06/23 02:10:16;;;;;;;4.35;1.70;;;23.80;1.00;;;;;;4936756;29;20176;-50
2023/06/23 02:12:46;;;;;;;2.75;1.80;;;23.80;1.00;;;;;;4936347;29;20452;-48
2023/06/23 02:15:14;;;;;;;3.35;2.05;;;23.80;1.00;;;;;;4935579;29;20048;-50
2023/06/23 02:17:43;;;;;;;3.88;1.88;;;23.80;1.00;;;;;;4935510;29;20067;-48
2023/06/23 02:20:15;;;;;;;3.15;1.75;;;23.80;1.00;;;;;;4935158;29;20048;-47
2023/06/23 02:22:48;;;;;;;3.50;2.05;;;23.80;1.00;;;;;;4935433;29;20052;-50
2023/06/23 02:25:17;;;;;;;5.38;2.28;;;23.80;1.00;;;;;;4936774;29;20050;-52
2023/06/23 02:27:45;;;;;;;3.10;2.20;;;23.80;1.00;;;;;;4936689;29;20388;-50
2023/06/23 02:30:13;;;;;;;4.47;2.00;;;23.80;1.00;;;;;;4936271;29;20040;-49
2023/06/23 02:32:40;;;;;;;2.42;1.40;;;23.80;1.00;;;;;;4936359;29;20051;-50
2023/06/23 02:35:08;;;;;;;3.05;1.98;;;23.80;1.00;;;;;;4936370;29;20099;-48
2023/06/23 02:37:39;;;;;;;2.45;1.40;;;23.80;1.00;;;;;;4936398;29;20039;-52
2023/06/23 02:40:10;;;;;;;3.83;2.05;;;23.80;1.00;;;;;;4935114;29;20393;-50
2023/06/23 02:45:28;;;;;;;2.47;2.03;;;23.70;1.00;;;;;;4914951;29;20324;-50
2023/06/23 02:47:57;;;;;;;2.25;1.52;;;23.70;1.00;;;;;;4916073;29;20040;-50
2023/06/23 02:50:32;;;;;;;3.55;2.10;;;23.70;1.00;;;;;;4915758;29;20068;-51
2023/06/23 02:53:04;;;;;;;3.30;1.92;;;23.70;1.00;;;;;;4915646;29;20055;-48
2023/06/23 02:55:37;;;;;;;2.40;1.80;;;23.70;1.00;;;;;;4910206;29;20572;-50
2023/06/23 02:58:07;;;;;;;3.92;2.40;;;23.70;1.00;;;;;;4915896;29;20416;-52
2023/06/23 03:00:37;;;;;;;2.88;1.95;;;23.70;1.00;;;;;;4915777;29;20044;-51
2023/06/23 03:03:09;;;;;;;2.42;1.95;;;23.70;1.00;;;;;;4916632;29;20050;-48
2023/06/23 03:05:36;;;;;;;3.70;2.17;;;23.70;1.00;;;;;;4917049;29;20044;-51
2023/06/23 03:08:04;;;;;;;5.15;1.83;;;23.80;1.00;;;;;;4916960;29;20123;-46
2023/06/23 03:10:32;;;;;;;2.65;1.92;;;23.70;1.00;;;;;;4916765;29;20508;-51
2023/06/23 03:13:00;;;;;;;3.05;2.22;;;23.70;1.00;;;;;;4916494;29;20032;-49
2023/06/23 03:15:29;;;;;;;3.28;1.90;;;23.70;1.00;;;;;;4984247;23;20074;-49
2023/06/23 03:18:11;;;;;;;2.95;2.20;;;23.70;1.00;;;;;;4925416;29;20039;-48
2023/06/23 03:20:48;;;;;;;2.80;1.70;;;23.70;1.00;;;;;;4928981;29;20555;-50
2023/06/23 03:23:18;;;;;;;3.05;1.90;;;23.70;1.00;;;;;;4927992;29;20039;-50
2023/06/23 03:25:47;;;;;;;3.13;1.92;;;23.70;1.00;;;;;;4934268;29;20048;-51
2023/06/23 03:28:25;;;;;;;3.70;2.05;;;23.70;1.00;;;;;;4930575;29;20052;-51
2023/06/23 03:31:02;;;;;;;5.20;2.17;;;23.70;1.00;;;;;;4930863;29;20056;-48
2023/06/23 03:33:33;;;;;;;3.15;1.83;;;23.70;1.00;;;;;;4917646;29;20069;-50
2023/06/23 03:36:17;;;;;;;2.97;1.77;;;23.70;1.00;;;;;;4934544;29;20040;-49
2023/06/23 03:38:56;;;;;;;3.42;1.77;;;23.70;1.00;;;;;;4933295;29;20044;-46
2023/06/23 03:41:27;;;;;;;4.53;1.70;;;23.60;1.00;;;;;;4934881;29;20091;-51
2023/06/23 03:43:57;;;;;;;3.20;1.92;;;23.60;1.00;;;;;;4934091;29;20069;-51
2023/06/23 03:46:37;;;;;;;2.70;1.80;;;23.60;1.00;;;;;;5196242;23;21177;-49
2023/06/23 03:49:07;;;;;;;2.10;1.48;;;23.60;1.00;;;;;;4937189;28;20054;-50
2023/06/23 03:51:36;;;;;;;3.53;2.00;;;23.60;1.00;;;;;;4926780;29;20042;-51
2023/06/23 03:54:06;;;;;;;2.60;2.17;;;23.60;1.00;;;;;;4926539;29;20139;-46
2023/06/23 03:56:35;;;;;;;3.45;2.00;;;23.60;1.00;;;;;;4915966;29;20072;-51
2023/06/23 03:59:03;;;;;;;3.35;2.17;;;23.60;1.00;;;;;;4915326;29;20404;-49
2023/06/23 04:01:30;;;;;;;4.38;2.13;;;23.60;1.00;;;;;;4923308;29;20139;-52
2023/06/23 04:03:59;;;;;;;3.00;2.10;;;23.60;1.00;;;;;;4915610;29;20508;-47
2023/06/23 04:06:28;;;;;;;2.90;2.45;;;23.60;1.00;;;;;;4915583;29;20052;-49
2023/06/23 04:08:57;;;;;;;5.05;2.20;;;23.60;1.00;;;;;;4915837;29;20048;-50
2023/06/23 04:11:26;;;;;;;3.88;2.60;;;23.60;1.00;;;;;;4911958;29;20048;-49
2023/06/23 04:13:56;;;;;;;8.85;4.10;;;23.60;1.00;;;;;;4913334;29;20078;-47
2023/06/23 04:16:24;;;;;;;4.28;3.75;;;23.60;1.00;;;;;;4918354;29;20140;-51
2023/06/23 04:18:52;;;;;;;6.97;4.05;;;23.60;1.00;;;;;;4915694;29;20156;-50
2023/06/23 04:21:21;;;;;;;4.93;3.35;;;23.60;1.00;;;;;;4930242;29;20043;-52
2023/06/23 04:23:49;;;;;;;7.43;3.65;;;23.60;1.00;;;;;;4928552;29;20055;-47
2023/06/23 04:26:17;;;;;;;7.88;4.22;;;23.60;1.00;;;;;;4930149;29;20080;-48
2023/06/23 04:28:45;;;;;;;9.23;4.22;;;23.60;1.00;;;;;;4917346;29;20079;-46
2023/06/23 04:31:16;;;;;;;10.07;3.05;;;23.60;1.00;;;;;;4909145;29;20048;-50
2023/06/23 04:33:43;;;;;;;7.82;2.97;;;23.50;1.00;;;;;;4906383;29;20045;-52
2023/06/23 04:36:13;;;;;;;5.07;2.83;;;23.50;1.00;;;;;;4922468;29;20525;-47
2023/06/23 04:38:45;;;;;;;5.95;3.20;;;23.50;1.00;;;;;;4923307;29;20519;-46
2023/06/23 04:41:18;;;;;;;8.65;3.50;;;23.50;1.00;;;;;;4915012;29;20123;-52
2023/06/23 04:43:49;;;;;;;7.43;2.70;;;23.50;1.00;;;;;;4915261;29;20408;-50
2023/06/23 04:46:31;;;;;;;10.90;3.75;;;23.50;1.00;;;;;;4914946;29;20040;-50
2023/06/23 04:49:08;;;;;;;4.93;2.85;;;23.50;1.00;;;;;;4914593;29;20065;-51
2023/06/23 04:51:39;;;;;;;6.53;2.40;;;23.50;1.00;;;;;;4917449;29;20046;-50
2023/06/23 04:54:31;;;;;;;6.30;2.75;;;23.50;1.00;;;;;;4918860;29;20516;-50
2023/06/23 04:57:02;;;;;;;10.52;2.72;;;23.50;1.00;;;;;;4918461;29;20132;-49
2023/06/23 04:59:34;;;;;;;4.75;2.15;;;23.50;1.00;;;;;;4915784;29;20045;-52
2023/06/23 05:02:03;;;;;;;4.32;2.60;;;23.50;1.00;;;;;;4905858;29;20050;-50
2023/06/23 05:04:33;;;;;;;5.00;2.33;;;23.50;1.00;;;;;;4928630;29;20114;-50
2023/06/23 05:07:02;;;;;;;6.50;2.15;;;23.50;1.00;;;;;;4936803;29;20048;-48
2023/06/23 05:09:31;;;;;;;6.45;2.00;;;23.50;1.00;;;;;;4937674;29;20047;-50
2023/06/23 05:12:00;;;;;;;1.95;1.60;;;23.50;1.00;;;;;;4937789;29;20123;-50
2023/06/23 05:14:28;;;;;;;3.55;1.88;;;23.40;1.00;;;;;;4937500;29;20051;-51
2023/06/23 05:16:59;;;;;;;4.13;2.25;;;23.40;1.00;;;;;;4937839;29;20070;-52
2023/06/23 05:19:30;;;;;;;3.10;2.33;;;23.50;1.00;;;;;;4976001;23;20040;-47
2023/06/23 05:21:59;;;;;;;4.32;2.08;;;23.50;1.00;;;;;;4894278;29;20055;-52
2023/06/23 05:24:27;;;;;;;5.07;1.88;;;23.50;1.00;;;;;;4899575;29;20051;-51
2023/06/23 05:26:59;;;;;;;5.60;2.53;;;23.50;1.00;;;;;;4899755;29;20068;-50
2023/06/23 05:29:27;;;;;;;3.85;2.50;;;23.40;1.00;;;;;;4899435;29;20041;-50
2023/06/23 05:31:56;;;;;;;7.13;2.35;;;23.50;1.00;;;;;;4899303;29;20085;-49
2023/06/23 05:34:25;;;;;;;3.70;2.20;;;23.50;1.00;;;;;;4899355;29;20056;-46
2023/06/23 05:36:53;;;;;;;3.90;2.05;;;23.40;1.00;;;;;;4899585;29;20414;-45
2023/06/23 05:39:23;;;;;;;2.50;1.50;;;23.40;1.00;;;;;;4899476;29;20032;-48
2023/06/23 05:41:50;;;;;;;3.15;2.20;;;23.40;1.00;;;;;;4899348;29;20044;-46
2023/06/23 05:44:17;;;;;;;4.07;2.60;;;23.40;1.00;;;;;;4899106;29;20441;-46
2023/06/23 05:46:46;;;;;;;3.33;2.20;;;23.40;1.00;;;;;;4899457;29;20128;-46
2023/06/23 05:49:17;;;;;;;2.08;1.88;;;23.40;1.00;;;;;;4899581;29;20073;-45
2023/06/23 05:51:50;;;;;;;6.05;2.35;;;23.40;1.00;;;;;;4899179;29;20044;-45
2023/06/23 05:54:19;;;;;;;;;;;23.40;1.00;;;;;;4899632;29;20040;-49
2023/06/23 05:56:53;;;;;;;4.50;2.13;;;23.40;1.00;;;;;;4899717;29;19923;-49
2023/06/23 05:59:36;;;;;;;4.53;2.35;;;23.40;1.00;;;;;;4899260;29;20485;-46
2023/06/23 06:02:05;;;;;;;2.97;2.08;;;23.40;1.00;;;;;;4898714;29;20051;-47
2023/06/23 06:04:35;;;;;;;3.67;1.98;;;23.40;1.00;;;;;;4898928;29;20044;-47
2023/06/23 06:07:02;;;;;;;5.13;2.40;;;23.40;1.00;;;;;;4899131;29;20049;-52
2023/06/23 06:09:32;;;;;;;2.70;1.83;;;23.40;1.00;;;;;;4897817;29;20123;-51
2023/06/23 06:11:59;;;;;;;3.03;2.20;;;23.40;1.00;;;;;;4898913;29;20461;-47
2023/06/23 06:14:30;;;;;;;4.18;2.50;;;23.40;1.00;;;;;;4916011;29;20127;-50
2023/06/23 06:16:59;;;;;;;2.70;2.10;;;23.40;1.00;;;;;;4917700;29;20050;-49
2023/06/23 06:19:28;;;;;;;3.88;2.17;;;23.40;1.00;;;;;;4917775;29;20036;-50
2023/06/23 06:21:56;;;;;;;3.15;2.05;;;23.40;1.00;;;;;;5238141;23;20068;-51
2023/06/23 06:24:24;;;;;;;2.38;2.03;;;23.40;1.00;;;;;;4915173;29;20064;-50
2023/06/23 06:26:56;;;;;;;3.30;2.70;;;23.50;1.00;;;;;;4917725;29;20043;-50
2023/06/23 06:29:24;;;;;;;4.80;2.40;;;23.40;1.00;;;;;;4917658;29;20044;-51
2023/06/23 06:31:53;;;;;;;4.93;2.85;;;23.40;1.00;;;;;;4917237;29;20095;-52
2023/06/23 06:34:24;;;;;;;4.45;2.75;;;23.50;1.00;;;;;;4917256;29;20048;-45
2023/06/23 06:36:53;;;;;;;4.78;2.67;;;23.50;1.00;;;;;;4917434;29;20091;-49
2023/06/23 06:39:22;;;;;;;4.82;2.38;;;23.50;1.00;;;;;;4917397;29;20051;-52
2023/06/23 06:41:49;;;;;;;5.28;2.40;;;23.50;1.00;;;;;;4917420;29;20036;-52
2023/06/23 06:44:17;;;;;;;3.25;2.42;;;23.50;1.00;;;;;;4917081;29;20036;-51
2023/06/23 06:46:45;;;;;;;4.15;2.40;;;23.50;1.00;;;;;;4917424;29;20059;-50
2023/06/23 06:49:14;;;;;;;2.75;2.30;;;23.50;1.00;;;;;;4917193;29;20040;-52
2023/06/23 06:51:42;;;;;;;7.15;2.80;;;23.50;1.00;;;;;;4917049;29;20044;-49
2023/06/23 06:54:09;;;;;;;5.50;2.58;;;23.50;1.00;;;;;;4909750;29;20089;-50
2023/06/23 06:56:40;;;;;;;3.75;2.28;;;23.50;1.00;;;;;;4898388;29;20040;-48
2023/06/23 06:59:07;;;;;;;4.28;2.58;;;23.50;1.00;;;;;;4905287;29;20392;-52
2023/06/23 07:01:39;;;;;;;3.22;2.55;;;23.50;1.00;;;;;;4916882;29;20672;-45
2023/06/23 07:04:07;;;;;;;5.60;2.78;;;23.60;1.00;;;;;;4916921;29;20381;-50
2023/06/23 07:06:36;;;;;;;3.53;2.42;;;23.60;1.00;;;;;;4917205;29;20048;-48
2023/06/23 07:09:03;;;;;;;2.90;2.35;;;23.60;1.00;;;;;;4917387;29;20046;-48
2023/06/23 07:11:31;;;;;;;4.72;2.80;;;23.60;1.00;;;;;;4916568;29;20038;-52
2023/06/23 07:14:00;;;;;;;4.50;3.05;;;23.60;1.00;;;;;;4916272;29;20067;-48
2023/06/23 07:16:30;;;;;;;4.78;2.47;;;23.60;1.00;;;;;;4916599;29;20399;-47
2023/06/23 07:18:57;;;;;;;4.30;3.13;;;23.60;1.00;;;;;;4916645;29;20148;-52
2023/06/23 07:21:24;;;;;;;6.65;3.22;;;23.60;1.00;;;;;;4916339;29;20119;-49
2023/06/23 07:24:01;;;;;;;4.15;2.60;;;23.60;1.00;;;;;;4920449;23;20036;31
2023/06/23 07:26:28;;;;;;;5.30;2.70;;;23.60;1.00;;;;;;4895197;29;20067;-48
2023/06/23 07:28:55;;;;;;;3.63;2.35;;;23.60;1.00;;;;;;4897707;29;20441;-46
2023/06/23 07:31:22;;;;;;;3.83;2.95;;;23.60;1.00;;;;;;4900280;29;20400;-49
2023/06/23 07:33:49;;;;;;;4.25;2.90;;;23.60;1.00;;;;;;4897301;29;20115;-46
2023/06/23 07:36:16;;;;;;;5.40;2.75;;;23.60;1.00;;;;;;4897415;29;20045;-46
2023/06/23 07:38:42;;;;;;;4.45;2.85;;;23.60;1.00;;;;;;4897640;29;20276;-51
2023/06/23 07:41:09;;;;;;;5.25;3.22;;;23.60;1.00;;;;;;4897315;29;20036;-45
2023/06/23 07:43:36;;;;;;;4.82;3.33;;;23.60;1.00;;;;;;4897173;29;20040;-48
2023/06/23 07:46:03;;;;;;;5.45;2.95;;;23.60;1.00;;;;;;4897388;29;20044;-50
2023/06/23 07:48:30;;;;;;;5.72;3.92;;;23.60;1.00;;;;;;4897505;29;20040;-50
2023/06/23 07:50:57;;;;;;;3.22;2.85;;;23.60;1.00;;;;;;4896944;29;20064;-45
2023/06/23 07:53:24;;;;;;;4.78;2.97;;;23.60;1.00;;;;;;4896927;29;20052;-44
2023/06/23 07:55:50;;;;;;;9.85;3.35;;;23.70;1.00;;;;;;4908071;29;20062;-45
2023/06/23 07:58:17;;;;;;;3.92;2.38;;;23.70;1.00;;;;;;4916205;29;20036;-45
2023/06/23 08:00:44;;;;;;;3.75;2.72;;;23.70;1.00;;;;;;4915889;29;20131;-44
2023/06/23 08:03:11;;;;;;;6.03;3.95;;;23.70;1.00;;;;;;4915926;29;20468;-47
2023/06/23 08:05:38;;;;;;;3.78;2.85;;;23.70;1.00;;;;;;4915759;29;20471;-47
2023/06/23 08:08:05;;;;;;;7.93;3.42;;;23.70;1.00;;;;;;4910039;29;20131;-51
2023/06/23 08:10:32;;;;;;;4.05;3.08;;;23.70;1.00;;;;;;4896758;29;20049;-49
2023/06/23 08:12:59;;;;;;;4.40;2.78;;;23.70;1.00;;;;;;4896589;29;20103;-44
2023/06/23 08:15:26;;;;;;;3.95;3.03;;;23.70;1.00;;;;;;4896605;29;20036;-45
2023/06/23 08:17:54;;;;;;;3.85;3.08;;;23.70;1.00;;;;;;4896983;29;20041;-48
2023/06/23 08:20:22;;;;;;;4.03;2.83;;;23.70;1.00;;;;;;4896664;29;20123;-51
2023/06/23 08:22:48;;;;;;;3.92;3.00;;;23.70;1.00;;;;;;4896378;29;20036;-47
2023/06/23 08:28:04;;;;;;;5.13;2.78;;;23.80;1.00;;;;;;4947173;23;20131;-45
2023/06/23 08:30:32;;;;;;;4.80;3.00;;;23.80;1.00;;;;;;4915426;29;20047;-50
2023/06/23 08:33:00;;;;;;;3.33;2.42;;;23.80;1.00;;;;;;4915252;29;20551;-48
2023/06/23 08:35:27;;;;;;;5.88;2.65;;;23.80;1.00;;;;;;4915105;29;20508;-49
2023/06/23 08:37:54;;;;;;;4.22;2.80;;;23.80;1.00;;;;;;4915439;29;20032;-50
2023/06/23 08:40:21;;;;;;;3.45;2.92;;;23.80;1.00;;;;;;4915363;29;20040;-48
2023/06/23 08:42:48;;;;;;;5.32;3.22;;;23.80;1.00;;;;;;4907460;29;20056;-48
2023/06/23 08:45:17;;;;;;;4.93;3.40;;;23.80;1.00;;;;;;4915221;29;20071;-46
2023/06/23 08:47:51;;;;;;;4.45;3.58;;;23.80;1.00;;;;;;4915236;29;20146;-47
2023/06/23 08:50:20;;;;;;;3.10;2.70;;;23.80;1.00;;;;;;4915238;29;20071;-48
2023/06/23 08:52:47;;;;;;;4.47;3.00;;;23.80;1.00;;;;;;4914912;29;20132;-48
2023/06/23 08:55:15;;;;;;;4.35;3.00;;;23.80;1.00;;;;;;4915219;29;20076;-45
2023/06/23 08:57:47;;;;;;;4.15;3.00;;;23.80;1.00;;;;;;4916414;28;20048;-46
2023/06/23 09:00:18;;;;;;;5.32;3.33;;;23.80;1.00;;;;;;4912914;29;20040;-50
2023/06/23 09:02:45;;;;;;;5.68;3.28;;;23.80;1.00;;;;;;4914953;29;20068;-50
2023/06/23 09:05:12;;;;;;;2.58;2.28;;;23.80;1.00;;;;;;4915273;29;20183;-50
2023/06/23 09:07:39;;;;;;;4.97;3.50;;;23.80;1.00;;;;;;4915174;29;20048;-45
2023/06/23 09:10:06;;;;;;;4.38;3.30;;;23.80;1.00;;;;;;4915517;29;20047;-49
2023/06/23 09:12:33;;;;;;;3.75;3.03;;;23.80;1.00;;;;;;4915191;29;20048;-47
2023/06/23 09:15:02;;;;;;;6.63;3.55;;;23.80;1.00;;;;;;4914896;29;20073;-45
2023/06/23 09:17:29;;;;;;;5.25;3.38;;;23.80;1.00;;;;;;4914947;29;20096;-46
2023/06/23 09:19:57;;;;;;;3.15;2.40;;;23.80;1.00;;;;;;4915089;29;20511;-45
2023/06/23 09:22:26;;;;;;;3.90;2.90;;;23.80;1.00;;;;;;4914704;29;20075;-44
2023/06/23 09:24:52;;;;;;;3.30;2.65;;;23.90;1.00;;;;;;4914730;29;20060;-50
2023/06/23 09:27:19;;;;;;;4.43;3.47;;;23.90;1.00;;;;;;4914846;29;20123;-51
2023/06/23 09:30:00;;;;;;;5.40;3.80;;;23.90;1.00;;;;;;4963365;23;20055;-49
2023/06/23 09:32:30;;;;;;;3.85;2.70;;;23.90;1.00;;;;;;4914620;29;20050;-47
2023/06/23 09:34:57;;;;;;;4.43;3.05;;;23.90;1.00;;;;;;4914780;29;20135;-49
2023/06/23 09:37:24;;;;;;;3.92;2.85;;;23.90;1.00;;;;;;4899484;29;20547;-50
2023/06/23 09:39:55;;;;;;;4.60;3.10;;;23.90;1.00;;;;;;4918025;29;20047;-46
2023/06/23 09:42:24;;;;;;;5.95;2.95;;;23.90;1.00;;;;;;4918111;29;20060;-51
2023/06/23 09:44:51;;;;;;;3.85;3.10;;;23.90;1.00;;;;;;4918299;29;20043;-50
2023/06/23 09:47:18;;;;;;;3.75;2.40;;;23.90;1.00;;;;;;4901217;29;20496;-47
2023/06/23 09:49:48;;;;;;;4.60;2.60;;;23.90;1.00;;;;;;4918037;29;20074;-48
2023/06/23 09:52:25;;;;;;;4.00;2.80;;;23.90;1.00;;;;;;4917826;29;20127;-51
2023/06/23 09:54:52;;;;;;;5.30;3.47;;;23.90;1.00;;;;;;4917938;29;20043;-49
2023/06/23 09:57:19;;;;;;;3.53;2.45;;;23.90;1.00;;;;;;4918095;29;20119;-45
2023/06/23 09:59:51;;;;;;;2.95;2.47;;;23.90;1.00;;;;;;4932368;23;20505;-47
2023/06/23 10:02:22;;;;;;;3.53;2.73;;;23.90;1.00;;;;;;4902770;29;20041;-49
2023/06/23 10:04:50;;;;;;;5.07;2.47;;;23.90;1.00;;;;;;4898767;29;20059;-48
2023/06/23 10:07:25;;;;;;;4.70;3.20;;;23.90;1.00;;;;;;4898904;29;20040;-46
2023/06/23 10:09:58;;;;;;;3.33;2.53;;;23.90;1.00;;;;;;4910255;29;20048;-44
2023/06/23 10:12:45;;;;;;;2.75;2.50;;;23.90;1.00;;;;;;4917274;29;20048;-48
2023/06/23 10:15:13;;;;;;;2.92;2.15;;;23.90;1.00;;;;;;4917655;29;20111;-49
2023/06/23 10:17:41;;;;;;;3.17;2.60;;;23.90;1.00;;;;;;4917419;29;20562;-49
2023/06/23 10:20:08;;;;;;;4.35;2.75;;;23.90;1.00;;;;;;4917442;29;20032;-45
2023/06/23 10:22:37;;;;;;;4.47;3.00;;;23.90;1.00;;;;;;4917218;29;20168;-46
2023/06/23 10:25:08;;;;;;;4.53;2.83;;;23.90;1.00;;;;;;4917432;29;20043;-51
2023/06/23 10:27:36;;;;;;;5.50;2.60;;;23.90;1.00;;;;;;4917335;29;20072;-48
2023/06/23 10:30:04;;;;;;;3.88;3.00;;;23.90;1.00;;;;;;5056852;23;21200;-50
2023/06/23 10:32:34;;;;;;;4.35;2.58;;;23.90;1.00;;;;;;4920157;29;20052;-52
2023/06/23 10:35:08;;;;;;;4.30;2.58;;;23.90;1.00;;;;;;4929607;29;20048;-50
2023/06/23 10:37:36;;;;;;;3.50;2.47;;;23.90;1.00;;;;;;4936224;29;20043;-49
2023/06/23 10:40:15;;;;;;;5.38;2.67;;;23.90;1.00;;;;;;4936365;29;20071;-50
2023/06/23 10:42:45;;;;;;;4.22;2.80;;;23.90;1.00;;;;;;4935938;29;20055;-52
2023/06/23 10:45:12;;;;;;;3.22;2.53;;;23.90;1.00;;;;;;4936184;29;20512;-46
2023/06/23 10:47:39;;;;;;;4.00;3.10;;;23.90;1.00;;;;;;4936001;29;20123;-52
2023/06/23 10:50:08;;;;;;;4.55;2.33;;;23.90;1.00;;;;;;4936100;29;20119;-51
2023/06/23 10:52:36;;;;;;;5.10;2.45;;;23.90;1.00;;;;;;4921173;29;20052;-51
2023/06/23 10:55:41;;;;;;;5.22;2.63;;;23.90;1.00;;;;;;4918341;29;20044;-46
2023/06/23 10:58:28;;;;;;;6.55;2.40;;;23.90;1.00;;;;;;4912266;29;20119;-52
2023/06/23 11:00:55;;;;;;;6.03;2.88;;;23.90;1.00;;;;;;5268640;23;21464;-47
2023/06/23 11:03:36;;;;;;;4.38;2.70;;;23.90;1.00;;;;;;4914190;29;20084;-51
2023/06/23 11:06:07;;;;;;;4.25;2.47;;;23.90;1.00;;;;;;4909976;29;20066;-51
2023/06/23 11:08:36;;;;;;;6.43;2.78;;;23.90;1.00;;;;;;4916482;29;20078;-52
2023/06/23 11:11:08;;;;;;;6.07;2.67;;;23.90;1.00;;;;;;4907032;29;20144;-48
2023/06/23 11:13:49;;;;;;;7.32;2.83;;;24.00;1.00;;;;;;4897444;29;20044;-52
2023/06/23 11:16:18;;;;;;;3.40;2.35;;;23.90;1.00;;;;;;4897501;29;20071;-52
2023/06/23 11:18:53;;;;;;;3.67;2.40;;;23.90;1.00;;;;;;4897506;29;20465;-49
2023/06/23 11:21:30;;;;;;;4.15;2.45;;;23.90;1.00;;;;;;4896518;29;20092;-52
2023/06/23 11:24:20;;;;;;;5.85;2.83;;;23.90;1.00;;;;;;4894561;29;20489;-50
2023/06/23 11:27:00;;;;;;;5.90;2.17;;;23.90;1.00;;;;;;4887458;29;20045;-50
2023/06/23 11:29:27;;;;;;;7.28;2.92;;;23.90;1.00;;;;;;4892326;29;20457;-48
2023/06/23 11:32:06;;;;;;;6.10;2.78;;;23.90;1.00;;;;;;4891680;29;20044;-49
2023/06/23 11:34:56;;;;;;;3.17;1.98;;;23.90;1.00;;;;;;5165604;23;20082;-50
2023/06/23 11:37:26;;;;;;;7.40;2.38;;;23.90;1.00;;;;;;4948606;29;20047;-47
2023/06/23 11:39:55;;;;;;;5.75;2.33;;;23.90;1.00;;;;;;4947327;28;20040;-52
2023/06/23 11:42:22;;;;;;;3.83;2.72;;;23.90;1.00;;;;;;4928633;29;20040;-52
2023/06/23 11:44:49;;;;;;;3.53;2.50;;;23.90;1.00;;;;;;4929131;29;20059;-48
2023/06/23 11:47:31;;;;;;;8.52;2.63;;;24.00;1.00;;;;;;4920326;29;20044;-50
2023/06/23 11:50:03;;;;;;;4.35;2.05;;;23.90;1.00;;;;;;4915987;29;20076;-48
2023/06/23 11:52:30;;;;;;;5.45;2.25;;;23.90;1.00;;;;;;4916589;29;20043;-46
2023/06/23 11:54:57;;;;;;;6.20;2.42;;;23.90;1.00;;;;;;4916880;29;20503;-46
2023/06/23 11:57:24;;;;;;;4.80;2.42;;;23.90;1.00;;;;;;4922214;29;20067;-46
2023/06/23 11:59:52;;;;;;;2.92;2.42;;;23.90;1.00;;;;;;4924799;29;20047;-52
2023/06/23 12:02:20;;;;;;;7.65;2.28;;;24.00;1.00;;;;;;4925167;29;20114;-46
2023/06/23 12:04:48;;;;;;;3.30;1.90;;;23.90;1.00;;;;;;4931007;29;20395;-46
2023/06/23 12:07:15;;;;;;;3.13;2.70;;;23.90;1.00;;;;;;4992661;23;20059;-46
2023/06/23 12:09:42;;;;;;;5.00;2.60;;;23.90;1.00;;;;;;4937507;29;20794;-49
2023/06/23 12:12:09;;;;;;;6.15;2.60;;;23.90;1.00;;;;;;4923609;29;20496;-48
2023/06/23 12:14:43;;;;;;;8.27;3.03;;;24.00;1.00;;;;;;4916104;29;20052;-50
2023/06/23 12:17:12;;;;;;;6.35;2.50;;;23.90;1.00;;;;;;4915615;29;20512;-46
2023/06/23 12:19:41;;;;;;;7.28;2.72;;;23.90;1.00;;;;;;4915541;29;20052;-52
2023/06/23 12:22:16;;;;;;;5.32;1.73;;;23.90;1.00;;;;;;4915856;29;20594;-46
2023/06/23 12:24:45;;;;;;;5.07;2.67;;;23.90;1.00;;;;;;4915481;29;20039;-51
2023/06/23 12:27:12;;;;;;;3.42;2.47;;;23.90;1.00;;;;;;4915611;29;20053;-46
2023/06/23 12:29:39;;;;;;;3.90;2.55;;;23.90;1.00;;;;;;4914245;29;20461;-51
2023/06/23 12:32:07;;;;;;;9.07;2.17;;;23.90;1.00;;;;;;4915474;29;20091;-49
2023/06/23 12:34:41;;;;;;;7.38;2.50;;;23.90;1.00;;;;;;4915481;29;20139;-49
2023/06/23 12:37:11;;;;;;;;;;;23.90;1.00;;;;;;4922583;29;20039;-52
2023/06/23 12:39:53;;;;;;;4.10;2.38;;;23.90;1.00;;;;;;4934524;29;19926;-51
2023/06/23 12:42:21;;;;;;;3.65;2.53;;;23.90;1.00;;;;;;4934628;29;20601;-50
2023/06/23 12:44:49;;;;;;;7.38;2.58;;;23.90;1.00;;;;;;4934243;29;20052;-49
2023/06/23 12:47:17;;;;;;;4.35;2.85;;;23.90;1.00;;;;;;4934421;29;20115;-53
2023/06/23 12:49:44;;;;;;;3.72;2.38;;;23.90;1.00;;;;;;4934088;29;20064;-49
2023/06/23 12:52:11;;;;;;;4.85;2.30;;;23.90;1.00;;;;;;4933969;29;20042;-49
2023/06/23 12:54:38;;;;;;;5.78;2.80;;;23.90;1.00;;;;;;4934577;29;20067;-50
2023/06/23 12:57:08;;;;;;;3.38;2.30;;;23.90;1.00;;;;;;4934488;29;20048;-52
2023/06/23 12:59:34;;;;;;;4.53;2.28;;;23.90;1.00;;;;;;4933931;29;20050;-51
2023/06/23 13:02:01;;;;;;;5.95;2.60;;;23.90;1.00;;;;;;4926263;29;20044;-49
2023/06/23 13:04:28;;;;;;;3.00;2.28;;;23.90;1.00;;;;;;4934171;29;20031;-52
2023/06/23 13:06:55;;;;;;;6.68;2.33;;;23.90;1.00;;;;;;4933106;29;20051;-49
2023/06/23 13:09:23;;;;;;;4.75;2.60;;;23.90;1.00;;;;;;4929254;29;20474;-52
2023/06/23 13:11:50;;;;;;;5.35;2.45;;;23.90;1.00;;;;;;4935220;29;20103;-52
2023/06/23 13:14:17;;;;;;;5.38;2.22;;;23.90;1.00;;;;;;4936503;29;20044;-52
2023/06/23 13:16:44;;;;;;;4.05;2.50;;;23.90;1.00;;;;;;4937482;29;20091;-48
2023/06/23 13:19:12;;;;;;;5.00;2.38;;;23.90;1.00;;;;;;4937737;29;20054;-52
2023/06/23 13:21:44;;;;;;;4.00;2.20;;;23.90;1.00;;;;;;4937615;29;20132;-50